sensor_id;sensor_type;location;lat;lon;timestamp;P1;durP1;ratioP1;P2;durP2;ratioP2
43670;SDS011;29267;50.906;7.248;2023-05-07T00:00:21;2.67;;;1.90;;
43670;SDS011;29267;50.906;7.248;2023-05-07T00:02:47;3.58;;;1.95;;
43670;SDS011;29267;50.906;7.248;2023-05-07T00:05:13;4.13;;;1.85;;
43670;SDS011;29267;50.906;7.248;2023-05-07T00:07:39;4.57;;;2.40;;
43670;SDS011;29267;50.906;7.248;2023-05-07T00:10:05;3.40;;;2.05;;
43670;SDS011;29267;50.906;7.248;2023-05-07T00:12:31;6.20;;;2.20;;
43670;SDS011;29267;50.906;7.248;2023-05-07T00:14:58;5.80;;;2.10;;
43670;SDS011;29267;50.906;7.248;2023-05-07T00:17:25;4.30;;;2.08;;
43670;SDS011;29267;50.906;7.248;2023-05-07T00:19:51;5.10;;;2.17;;
43670;SDS011;29267;50.906;7.248;2023-05-07T00:22:16;4.10;;;2.70;;
43670;SDS011;29267;50.906;7.248;2023-05-07T00:24:42;6.25;;;2.22;;
43670;SDS011;29267;50.906;7.248;2023-05-07T00:27:08;3.38;;;2.08;;
43670;SDS011;29267;50.906;7.248;2023-05-07T00:29:33;4.38;;;2.15;;
43670;SDS011;29267;50.906;7.248;2023-05-07T00:31:59;2.92;;;1.90;;
43670;SDS011;29267;50.906;7.248;2023-05-07T00:34:25;5.47;;;2.00;;
43670;SDS011;29267;50.906;7.248;2023-05-07T00:36:50;3.65;;;1.95;;
43670;SDS011;29267;50.906;7.248;2023-05-07T00:39:16;6.75;;;1.77;;
43670;SDS011;29267;50.906;7.248;2023-05-07T00:41:41;3.03;;;1.60;;
43670;SDS011;29267;50.906;7.248;2023-05-07T00:44:07;4.65;;;1.52;;
43670;SDS011;29267;50.906;7.248;2023-05-07T00:46:33;3.25;;;1.88;;
43670;SDS011;29267;50.906;7.248;2023-05-07T00:48:59;4.95;;;1.67;;
43670;SDS011;29267;50.906;7.248;2023-05-07T00:51:25;2.30;;;1.60;;
43670;SDS011;29267;50.906;7.248;2023-05-07T00:53:52;5.28;;;1.95;;
43670;SDS011;29267;50.906;7.248;2023-05-07T00:56:18;3.08;;;2.08;;
43670;SDS011;29267;50.906;7.248;2023-05-07T00:58:46;5.75;;;1.65;;
43670;SDS011;29267;50.906;7.248;2023-05-07T01:01:12;2.70;;;1.95;;
43670;SDS011;29267;50.906;7.248;2023-05-07T01:03:38;4.82;;;1.73;;
43670;SDS011;29267;50.906;7.248;2023-05-07T01:06:03;3.50;;;1.80;;
43670;SDS011;29267;50.906;7.248;2023-05-07T01:08:31;3.58;;;1.98;;
43670;SDS011;29267;50.906;7.248;2023-05-07T01:10:59;2.90;;;1.98;;
43670;SDS011;29267;50.906;7.248;2023-05-07T01:13:25;3.75;;;1.58;;
43670;SDS011;29267;50.906;7.248;2023-05-07T01:15:52;8.05;;;1.83;;
43670;SDS011;29267;50.906;7.248;2023-05-07T01:18:18;2.53;;;1.83;;
43670;SDS011;29267;50.906;7.248;2023-05-07T01:20:44;2.97;;;1.42;;
43670;SDS011;29267;50.906;7.248;2023-05-07T01:23:11;4.85;;;1.75;;
43670;SDS011;29267;50.906;7.248;2023-05-07T01:25:37;1.23;;;1.13;;
43670;SDS011;29267;50.906;7.248;2023-05-07T01:28:02;4.03;;;1.63;;
43670;SDS011;29267;50.906;7.248;2023-05-07T01:30:28;7.22;;;2.45;;
43670;SDS011;29267;50.906;7.248;2023-05-07T01:33:06;5.47;;;2.30;;
43670;SDS011;29267;50.906;7.248;2023-05-07T01:35:37;2.13;;;1.65;;
43670;SDS011;29267;50.906;7.248;2023-05-07T01:38:06;2.92;;;2.33;;
43670;SDS011;29267;50.906;7.248;2023-05-07T01:40:33;5.35;;;1.83;;
43670;SDS011;29267;50.906;7.248;2023-05-07T01:43:02;4.22;;;1.58;;
43670;SDS011;29267;50.906;7.248;2023-05-07T01:45:29;2.50;;;1.55;;
43670;SDS011;29267;50.906;7.248;2023-05-07T01:47:56;3.70;;;1.70;;
43670;SDS011;29267;50.906;7.248;2023-05-07T01:50:23;2.97;;;1.80;;
43670;SDS011;29267;50.906;7.248;2023-05-07T01:52:50;2.80;;;1.60;;
43670;SDS011;29267;50.906;7.248;2023-05-07T01:55:16;4.18;;;1.80;;
43670;SDS011;29267;50.906;7.248;2023-05-07T01:57:41;3.33;;;2.15;;
43670;SDS011;29267;50.906;7.248;2023-05-07T02:00:07;5.68;;;2.40;;
43670;SDS011;29267;50.906;7.248;2023-05-07T02:02:34;6.25;;;2.40;;
43670;SDS011;29267;50.906;7.248;2023-05-07T02:04:59;10.20;;;2.83;;
43670;SDS011;29267;50.906;7.248;2023-05-07T02:07:28;4.07;;;2.10;;
43670;SDS011;29267;50.906;7.248;2023-05-07T02:09:53;6.25;;;2.20;;
43670;SDS011;29267;50.906;7.248;2023-05-07T02:12:20;6.15;;;2.63;;
43670;SDS011;29267;50.906;7.248;2023-05-07T02:14:46;3.38;;;2.15;;
43670;SDS011;29267;50.906;7.248;2023-05-07T02:17:12;8.43;;;2.40;;
43670;SDS011;29267;50.906;7.248;2023-05-07T02:19:37;3.05;;;2.10;;
43670;SDS011;29267;50.906;7.248;2023-05-07T02:22:03;5.43;;;2.10;;
43670;SDS011;29267;50.906;7.248;2023-05-07T02:24:29;4.07;;;2.33;;
43670;SDS011;29267;50.906;7.248;2023-05-07T02:26:55;8.10;;;2.35;;
43670;SDS011;29267;50.906;7.248;2023-05-07T02:29:20;6.00;;;2.10;;
43670;SDS011;29267;50.906;7.248;2023-05-07T02:31:46;8.30;;;2.20;;
43670;SDS011;29267;50.906;7.248;2023-05-07T02:34:15;3.85;;;2.15;;
43670;SDS011;29267;50.906;7.248;2023-05-07T02:36:41;5.10;;;2.15;;
43670;SDS011;29267;50.906;7.248;2023-05-07T02:39:07;9.23;;;2.20;;
43670;SDS011;29267;50.906;7.248;2023-05-07T02:41:32;2.55;;;1.67;;
43670;SDS011;29267;50.906;7.248;2023-05-07T02:43:58;3.60;;;2.38;;
43670;SDS011;29267;50.906;7.248;2023-05-07T02:46:24;4.10;;;1.92;;
43670;SDS011;29267;50.906;7.248;2023-05-07T02:48:49;3.70;;;1.75;;
43670;SDS011;29267;50.906;7.248;2023-05-07T02:51:16;2.33;;;1.63;;
43670;SDS011;29267;50.906;7.248;2023-05-07T02:53:45;3.35;;;1.83;;
43670;SDS011;29267;50.906;7.248;2023-05-07T02:56:11;3.75;;;1.73;;
43670;SDS011;29267;50.906;7.248;2023-05-07T02:58:36;4.45;;;2.08;;
43670;SDS011;29267;50.906;7.248;2023-05-07T03:01:04;4.55;;;2.00;;
43670;SDS011;29267;50.906;7.248;2023-05-07T03:03:33;5.40;;;1.83;;
43670;SDS011;29267;50.906;7.248;2023-05-07T03:05:59;3.25;;;1.75;;
43670;SDS011;29267;50.906;7.248;2023-05-07T03:08:25;2.60;;;1.65;;
43670;SDS011;29267;50.906;7.248;2023-05-07T03:10:51;4.13;;;1.55;;
43670;SDS011;29267;50.906;7.248;2023-05-07T03:13:16;2.13;;;1.60;;
43670;SDS011;29267;50.906;7.248;2023-05-07T03:15:42;4.43;;;1.88;;
43670;SDS011;29267;50.906;7.248;2023-05-07T03:18:08;3.65;;;1.60;;
43670;SDS011;29267;50.906;7.248;2023-05-07T03:20:33;1.75;;;1.38;;
43670;SDS011;29267;50.906;7.248;2023-05-07T03:23:01;3.00;;;1.63;;
43670;SDS011;29267;50.906;7.248;2023-05-07T03:25:27;4.03;;;1.67;;
43670;SDS011;29267;50.906;7.248;2023-05-07T03:27:52;3.58;;;1.33;;
43670;SDS011;29267;50.906;7.248;2023-05-07T03:30:18;2.97;;;1.55;;
43670;SDS011;29267;50.906;7.248;2023-05-07T03:32:43;2.92;;;1.60;;
43670;SDS011;29267;50.906;7.248;2023-05-07T03:35:09;6.95;;;2.47;;
43670;SDS011;29267;50.906;7.248;2023-05-07T03:37:35;3.28;;;1.40;;
43670;SDS011;29267;50.906;7.248;2023-05-07T03:40:00;2.92;;;1.80;;
43670;SDS011;29267;50.906;7.248;2023-05-07T03:42:27;8.90;;;2.22;;
43670;SDS011;29267;50.906;7.248;2023-05-07T03:44:54;2.92;;;1.75;;
43670;SDS011;29267;50.906;7.248;2023-05-07T03:47:19;3.05;;;2.25;;
43670;SDS011;29267;50.906;7.248;2023-05-07T03:49:45;6.22;;;1.60;;
43670;SDS011;29267;50.906;7.248;2023-05-07T03:52:10;6.07;;;1.80;;
43670;SDS011;29267;50.906;7.248;2023-05-07T03:54:36;3.13;;;1.40;;
43670;SDS011;29267;50.906;7.248;2023-05-07T03:57:01;2.83;;;1.40;;
43670;SDS011;29267;50.906;7.248;2023-05-07T03:59:27;3.22;;;1.70;;
43670;SDS011;29267;50.906;7.248;2023-05-07T04:01:53;2.75;;;1.45;;
43670;SDS011;29267;50.906;7.248;2023-05-07T04:04:18;5.25;;;1.73;;
43670;SDS011;29267;50.906;7.248;2023-05-07T04:06:45;4.07;;;2.15;;
43670;SDS011;29267;50.906;7.248;2023-05-07T04:09:10;2.65;;;1.73;;
43670;SDS011;29267;50.906;7.248;2023-05-07T04:11:36;3.85;;;1.60;;
43670;SDS011;29267;50.906;7.248;2023-05-07T04:14:01;7.65;;;1.60;;
43670;SDS011;29267;50.906;7.248;2023-05-07T04:16:27;2.15;;;1.42;;
43670;SDS011;29267;50.906;7.248;2023-05-07T04:18:53;4.00;;;1.77;;
43670;SDS011;29267;50.906;7.248;2023-05-07T04:21:19;3.95;;;1.75;;
43670;SDS011;29267;50.906;7.248;2023-05-07T04:23:46;3.67;;;1.98;;
43670;SDS011;29267;50.906;7.248;2023-05-07T04:26:12;2.10;;;1.58;;
43670;SDS011;29267;50.906;7.248;2023-05-07T04:28:38;3.97;;;1.67;;
43670;SDS011;29267;50.906;7.248;2023-05-07T04:31:04;3.22;;;1.50;;
43670;SDS011;29267;50.906;7.248;2023-05-07T04:33:30;3.00;;;1.40;;
43670;SDS011;29267;50.906;7.248;2023-05-07T04:35:56;7.60;;;1.88;;
43670;SDS011;29267;50.906;7.248;2023-05-07T04:38:21;5.40;;;1.60;;
43670;SDS011;29267;50.906;7.248;2023-05-07T04:40:48;2.97;;;1.70;;
43670;SDS011;29267;50.906;7.248;2023-05-07T04:43:14;4.00;;;2.22;;
43670;SDS011;29267;50.906;7.248;2023-05-07T04:45:40;2.05;;;1.40;;
43670;SDS011;29267;50.906;7.248;2023-05-07T04:48:06;5.47;;;1.70;;
43670;SDS011;29267;50.906;7.248;2023-05-07T04:50:33;3.67;;;1.85;;
43670;SDS011;29267;50.906;7.248;2023-05-07T04:52:59;3.33;;;1.42;;
43670;SDS011;29267;50.906;7.248;2023-05-07T04:55:25;5.00;;;1.95;;
43670;SDS011;29267;50.906;7.248;2023-05-07T04:57:51;3.60;;;1.92;;
43670;SDS011;29267;50.906;7.248;2023-05-07T05:00:18;4.05;;;1.23;;
43670;SDS011;29267;50.906;7.248;2023-05-07T05:05:13;3.78;;;1.95;;
43670;SDS011;29267;50.906;7.248;2023-05-07T05:07:38;6.25;;;1.42;;
43670;SDS011;29267;50.906;7.248;2023-05-07T05:10:04;1.70;;;1.25;;
43670;SDS011;29267;50.906;7.248;2023-05-07T05:12:30;2.22;;;1.60;;
43670;SDS011;29267;50.906;7.248;2023-05-07T05:14:56;3.92;;;1.90;;
43670;SDS011;29267;50.906;7.248;2023-05-07T05:17:22;1.98;;;1.77;;
43670;SDS011;29267;50.906;7.248;2023-05-07T05:19:47;2.47;;;1.45;;
43670;SDS011;29267;50.906;7.248;2023-05-07T05:22:13;5.45;;;1.85;;
43670;SDS011;29267;50.906;7.248;2023-05-07T05:24:38;3.35;;;1.52;;
43670;SDS011;29267;50.906;7.248;2023-05-07T05:27:04;4.22;;;1.70;;
43670;SDS011;29267;50.906;7.248;2023-05-07T05:29:30;2.60;;;1.98;;
43670;SDS011;29267;50.906;7.248;2023-05-07T05:31:56;2.25;;;1.55;;
43670;SDS011;29267;50.906;7.248;2023-05-07T05:34:22;4.55;;;1.83;;
43670;SDS011;29267;50.906;7.248;2023-05-07T05:36:48;3.67;;;1.52;;
43670;SDS011;29267;50.906;7.248;2023-05-07T05:39:13;2.70;;;1.92;;
43670;SDS011;29267;50.906;7.248;2023-05-07T05:41:39;2.63;;;1.67;;
43670;SDS011;29267;50.906;7.248;2023-05-07T05:44:05;2.15;;;1.60;;
43670;SDS011;29267;50.906;7.248;2023-05-07T05:46:30;2.78;;;1.42;;
43670;SDS011;29267;50.906;7.248;2023-05-07T05:48:56;2.85;;;2.10;;
43670;SDS011;29267;50.906;7.248;2023-05-07T05:51:22;3.38;;;1.65;;
43670;SDS011;29267;50.906;7.248;2023-05-07T05:53:48;2.17;;;1.48;;
43670;SDS011;29267;50.906;7.248;2023-05-07T05:56:13;2.60;;;1.70;;
43670;SDS011;29267;50.906;7.248;2023-05-07T05:58:40;2.15;;;1.77;;
43670;SDS011;29267;50.906;7.248;2023-05-07T06:01:06;3.33;;;1.88;;
43670;SDS011;29267;50.906;7.248;2023-05-07T06:03:32;4.40;;;1.80;;
43670;SDS011;29267;50.906;7.248;2023-05-07T06:05:58;2.45;;;1.42;;
43670;SDS011;29267;50.906;7.248;2023-05-07T06:08:25;2.72;;;1.88;;
43670;SDS011;29267;50.906;7.248;2023-05-07T06:10:51;4.10;;;1.48;;
43670;SDS011;29267;50.906;7.248;2023-05-07T06:13:16;2.63;;;1.55;;
43670;SDS011;29267;50.906;7.248;2023-05-07T06:15:42;3.63;;;1.30;;
43670;SDS011;29267;50.906;7.248;2023-05-07T06:18:07;3.53;;;1.83;;
43670;SDS011;29267;50.906;7.248;2023-05-07T06:20:33;5.72;;;1.45;;
43670;SDS011;29267;50.906;7.248;2023-05-07T06:22:59;2.53;;;1.42;;
43670;SDS011;29267;50.906;7.248;2023-05-07T06:25:25;2.28;;;1.67;;
43670;SDS011;29267;50.906;7.248;2023-05-07T06:27:50;1.88;;;1.55;;
43670;SDS011;29267;50.906;7.248;2023-05-07T06:30:16;1.83;;;1.60;;
43670;SDS011;29267;50.906;7.248;2023-05-07T06:32:41;3.38;;;1.60;;
43670;SDS011;29267;50.906;7.248;2023-05-07T06:35:07;2.50;;;2.00;;
43670;SDS011;29267;50.906;7.248;2023-05-07T06:37:33;4.32;;;2.20;;
43670;SDS011;29267;50.906;7.248;2023-05-07T06:39:58;2.40;;;1.55;;
43670;SDS011;29267;50.906;7.248;2023-05-07T06:42:24;3.80;;;2.05;;
43670;SDS011;29267;50.906;7.248;2023-05-07T06:44:50;3.80;;;1.90;;
43670;SDS011;29267;50.906;7.248;2023-05-07T06:47:15;2.22;;;1.80;;
43670;SDS011;29267;50.906;7.248;2023-05-07T06:49:41;3.40;;;1.70;;
43670;SDS011;29267;50.906;7.248;2023-05-07T06:52:07;2.25;;;1.63;;
43670;SDS011;29267;50.906;7.248;2023-05-07T06:54:32;3.17;;;1.95;;
43670;SDS011;29267;50.906;7.248;2023-05-07T06:56:58;1.52;;;1.40;;
43670;SDS011;29267;50.906;7.248;2023-05-07T06:59:23;2.75;;;1.40;;
43670;SDS011;29267;50.906;7.248;2023-05-07T07:01:49;5.25;;;2.05;;
43670;SDS011;29267;50.906;7.248;2023-05-07T07:04:15;2.08;;;1.35;;
43670;SDS011;29267;50.906;7.248;2023-05-07T07:06:40;2.70;;;1.70;;
43670;SDS011;29267;50.906;7.248;2023-05-07T07:09:06;3.47;;;1.45;;
43670;SDS011;29267;50.906;7.248;2023-05-07T07:11:32;4.35;;;1.40;;
43670;SDS011;29267;50.906;7.248;2023-05-07T07:13:57;1.60;;;1.10;;
43670;SDS011;29267;50.906;7.248;2023-05-07T07:16:23;2.75;;;1.20;;
43670;SDS011;29267;50.906;7.248;2023-05-07T07:18:49;1.58;;;1.00;;
43670;SDS011;29267;50.906;7.248;2023-05-07T07:21:15;5.18;;;1.40;;
43670;SDS011;29267;50.906;7.248;2023-05-07T07:23:41;1.73;;;1.10;;
43670;SDS011;29267;50.906;7.248;2023-05-07T07:26:07;3.60;;;1.15;;
43670;SDS011;29267;50.906;7.248;2023-05-07T07:28:32;1.58;;;0.80;;
43670;SDS011;29267;50.906;7.248;2023-05-07T07:30:58;1.88;;;1.17;;
43670;SDS011;29267;50.906;7.248;2023-05-07T07:33:23;1.88;;;1.25;;
43670;SDS011;29267;50.906;7.248;2023-05-07T07:35:49;6.05;;;1.23;;
43670;SDS011;29267;50.906;7.248;2023-05-07T07:38:15;1.65;;;1.05;;
43670;SDS011;29267;50.906;7.248;2023-05-07T07:40:40;1.48;;;0.98;;
43670;SDS011;29267;50.906;7.248;2023-05-07T07:43:06;3.42;;;0.82;;
43670;SDS011;29267;50.906;7.248;2023-05-07T07:45:31;2.47;;;1.08;;
43670;SDS011;29267;50.906;7.248;2023-05-07T07:47:57;2.13;;;1.10;;
43670;SDS011;29267;50.906;7.248;2023-05-07T07:50:22;1.63;;;0.88;;
43670;SDS011;29267;50.906;7.248;2023-05-07T07:52:48;2.33;;;1.08;;
43670;SDS011;29267;50.906;7.248;2023-05-07T07:55:13;1.00;;;0.80;;
43670;SDS011;29267;50.906;7.248;2023-05-07T07:57:43;2.25;;;1.42;;
43670;SDS011;29267;50.906;7.248;2023-05-07T08:00:08;5.00;;;1.42;;
43670;SDS011;29267;50.906;7.248;2023-05-07T08:02:34;1.75;;;1.10;;
43670;SDS011;29267;50.906;7.248;2023-05-07T08:05:00;4.20;;;1.50;;
43670;SDS011;29267;50.906;7.248;2023-05-07T08:07:25;2.95;;;1.10;;
43670;SDS011;29267;50.906;7.248;2023-05-07T08:09:51;3.35;;;0.90;;
43670;SDS011;29267;50.906;7.248;2023-05-07T08:12:17;3.38;;;1.20;;
43670;SDS011;29267;50.906;7.248;2023-05-07T08:14:43;1.20;;;1.10;;
43670;SDS011;29267;50.906;7.248;2023-05-07T08:17:08;2.85;;;1.15;;
43670;SDS011;29267;50.906;7.248;2023-05-07T08:19:35;3.97;;;0.80;;
43670;SDS011;29267;50.906;7.248;2023-05-07T08:22:01;1.40;;;0.80;;
43670;SDS011;29267;50.906;7.248;2023-05-07T08:24:27;4.28;;;1.00;;
43670;SDS011;29267;50.906;7.248;2023-05-07T08:26:53;1.42;;;0.93;;
43670;SDS011;29267;50.906;7.248;2023-05-07T08:29:19;3.67;;;1.38;;
43670;SDS011;29267;50.906;7.248;2023-05-07T08:31:44;2.40;;;1.05;;
43670;SDS011;29267;50.906;7.248;2023-05-07T08:34:10;3.97;;;1.00;;
43670;SDS011;29267;50.906;7.248;2023-05-07T08:36:35;1.95;;;1.10;;
43670;SDS011;29267;50.906;7.248;2023-05-07T08:39:01;2.40;;;1.20;;
43670;SDS011;29267;50.906;7.248;2023-05-07T08:41:27;2.17;;;1.08;;
43670;SDS011;29267;50.906;7.248;2023-05-07T08:43:52;1.33;;;1.00;;
43670;SDS011;29267;50.906;7.248;2023-05-07T08:46:22;2.53;;;1.10;;
43670;SDS011;29267;50.906;7.248;2023-05-07T08:48:50;1.75;;;0.80;;
43670;SDS011;29267;50.906;7.248;2023-05-07T08:51:18;1.83;;;1.13;;
43670;SDS011;29267;50.906;7.248;2023-05-07T08:53:45;3.65;;;1.20;;
43670;SDS011;29267;50.906;7.248;2023-05-07T08:56:13;2.10;;;1.10;;
43670;SDS011;29267;50.906;7.248;2023-05-07T08:58:40;3.80;;;1.38;;
43670;SDS011;29267;50.906;7.248;2023-05-07T09:01:08;6.07;;;1.23;;
43670;SDS011;29267;50.906;7.248;2023-05-07T09:03:36;2.63;;;1.15;;
43670;SDS011;29267;50.906;7.248;2023-05-07T09:06:03;1.80;;;0.95;;
43670;SDS011;29267;50.906;7.248;2023-05-07T09:08:29;0.95;;;0.80;;
43670;SDS011;29267;50.906;7.248;2023-05-07T09:10:54;2.97;;;1.00;;
43670;SDS011;29267;50.906;7.248;2023-05-07T09:13:20;1.27;;;0.90;;
43670;SDS011;29267;50.906;7.248;2023-05-07T09:15:46;3.70;;;0.88;;
43670;SDS011;29267;50.906;7.248;2023-05-07T09:18:12;2.13;;;1.05;;
43670;SDS011;29267;50.906;7.248;2023-05-07T09:20:39;2.85;;;1.50;;
43670;SDS011;29267;50.906;7.248;2023-05-07T09:23:06;3.13;;;1.08;;
43670;SDS011;29267;50.906;7.248;2023-05-07T09:25:33;6.40;;;1.00;;
43670;SDS011;29267;50.906;7.248;2023-05-07T09:28:00;3.38;;;2.63;;
43670;SDS011;29267;50.906;7.248;2023-05-07T09:30:30;3.78;;;2.42;;
43670;SDS011;29267;50.906;7.248;2023-05-07T09:32:57;5.57;;;1.52;;
43670;SDS011;29267;50.906;7.248;2023-05-07T09:35:24;2.30;;;0.98;;
43670;SDS011;29267;50.906;7.248;2023-05-07T09:37:52;2.55;;;1.10;;
43670;SDS011;29267;50.906;7.248;2023-05-07T09:40:20;1.85;;;1.02;;
43670;SDS011;29267;50.906;7.248;2023-05-07T09:42:50;1.52;;;0.88;;
43670;SDS011;29267;50.906;7.248;2023-05-07T09:45:21;3.38;;;1.10;;
43670;SDS011;29267;50.906;7.248;2023-05-07T09:47:57;2.50;;;1.10;;
43670;SDS011;29267;50.906;7.248;2023-05-07T09:50:25;2.47;;;1.08;;
43670;SDS011;29267;50.906;7.248;2023-05-07T09:52:54;1.42;;;1.10;;
43670;SDS011;29267;50.906;7.248;2023-05-07T09:55:20;1.58;;;1.05;;
43670;SDS011;29267;50.906;7.248;2023-05-07T09:57:49;5.47;;;1.10;;
43670;SDS011;29267;50.906;7.248;2023-05-07T10:00:16;4.00;;;1.35;;
43670;SDS011;29267;50.906;7.248;2023-05-07T10:02:45;1.25;;;0.90;;
43670;SDS011;29267;50.906;7.248;2023-05-07T10:05:14;1.85;;;0.98;;
43670;SDS011;29267;50.906;7.248;2023-05-07T10:07:40;3.03;;;1.40;;
43670;SDS011;29267;50.906;7.248;2023-05-07T10:10:06;3.50;;;1.20;;
43670;SDS011;29267;50.906;7.248;2023-05-07T10:12:32;3.40;;;1.20;;
43670;SDS011;29267;50.906;7.248;2023-05-07T10:15:04;3.33;;;1.02;;
43670;SDS011;29267;50.906;7.248;2023-05-07T10:17:38;4.15;;;1.25;;
43670;SDS011;29267;50.906;7.248;2023-05-07T10:20:04;3.53;;;1.00;;
43670;SDS011;29267;50.906;7.248;2023-05-07T10:22:32;2.15;;;1.17;;
43670;SDS011;29267;50.906;7.248;2023-05-07T10:25:04;8.60;;;1.10;;
43670;SDS011;29267;50.906;7.248;2023-05-07T10:27:39;2.17;;;1.00;;
43670;SDS011;29267;50.906;7.248;2023-05-07T10:32:47;1.50;;;0.90;;
43670;SDS011;29267;50.906;7.248;2023-05-07T10:35:23;1.50;;;1.00;;
43670;SDS011;29267;50.906;7.248;2023-05-07T10:37:51;3.15;;;1.00;;
43670;SDS011;29267;50.906;7.248;2023-05-07T10:40:17;4.00;;;0.90;;
43670;SDS011;29267;50.906;7.248;2023-05-07T10:42:54;2.25;;;1.30;;
43670;SDS011;29267;50.906;7.248;2023-05-07T10:45:28;1.48;;;0.85;;
43670;SDS011;29267;50.906;7.248;2023-05-07T10:50:36;2.60;;;1.02;;
43670;SDS011;29267;50.906;7.248;2023-05-07T10:55:43;1.50;;;0.90;;
43670;SDS011;29267;50.906;7.248;2023-05-07T10:58:29;1.13;;;0.90;;
43670;SDS011;29267;50.906;7.248;2023-05-07T11:00:59;2.55;;;1.50;;
43670;SDS011;29267;50.906;7.248;2023-05-07T11:03:26;0.98;;;0.88;;
43670;SDS011;29267;50.906;7.248;2023-05-07T11:11:18;2.30;;;1.10;;
43670;SDS011;29267;50.906;7.248;2023-05-07T11:13:47;5.25;;;1.00;;
43670;SDS011;29267;50.906;7.248;2023-05-07T11:18:56;2.13;;;0.90;;
43670;SDS011;29267;50.906;7.248;2023-05-07T11:21:34;1.90;;;1.00;;
43670;SDS011;29267;50.906;7.248;2023-05-07T11:24:02;2.35;;;1.20;;
43670;SDS011;29267;50.906;7.248;2023-05-07T11:26:30;4.13;;;1.33;;
43670;SDS011;29267;50.906;7.248;2023-05-07T11:29:10;5.40;;;1.15;;
43670;SDS011;29267;50.906;7.248;2023-05-07T11:31:40;4.30;;;0.95;;
43670;SDS011;29267;50.906;7.248;2023-05-07T11:34:06;1.65;;;1.10;;
43670;SDS011;29267;50.906;7.248;2023-05-07T11:36:32;2.35;;;1.10;;
43670;SDS011;29267;50.906;7.248;2023-05-07T11:38:58;1.48;;;1.00;;
43670;SDS011;29267;50.906;7.248;2023-05-07T11:41:34;2.15;;;0.90;;
43670;SDS011;29267;50.906;7.248;2023-05-07T11:44:01;1.45;;;1.08;;
43670;SDS011;29267;50.906;7.248;2023-05-07T11:46:27;3.75;;;1.13;;
43670;SDS011;29267;50.906;7.248;2023-05-07T11:48:53;1.92;;;1.08;;
43670;SDS011;29267;50.906;7.248;2023-05-07T11:51:20;2.20;;;1.10;;
43670;SDS011;29267;50.906;7.248;2023-05-07T11:53:47;2.35;;;1.17;;
43670;SDS011;29267;50.906;7.248;2023-05-07T11:56:14;2.05;;;1.08;;
43670;SDS011;29267;50.906;7.248;2023-05-07T11:58:41;3.17;;;0.73;;
43670;SDS011;29267;50.906;7.248;2023-05-07T12:01:08;3.67;;;0.85;;
43670;SDS011;29267;50.906;7.248;2023-05-07T12:03:39;3.85;;;1.15;;
43670;SDS011;29267;50.906;7.248;2023-05-07T12:06:11;1.05;;;0.88;;
43670;SDS011;29267;50.906;7.248;2023-05-07T12:08:39;5.72;;;1.58;;
43670;SDS011;29267;50.906;7.248;2023-05-07T12:11:11;2.35;;;1.10;;
43670;SDS011;29267;50.906;7.248;2023-05-07T12:16:06;1.63;;;0.90;;
43670;SDS011;29267;50.906;7.248;2023-05-07T12:18:33;1.58;;;0.90;;
43670;SDS011;29267;50.906;7.248;2023-05-07T12:21:00;1.90;;;0.88;;
43670;SDS011;29267;50.906;7.248;2023-05-07T12:23:26;1.73;;;1.00;;
43670;SDS011;29267;50.906;7.248;2023-05-07T12:25:52;2.38;;;1.05;;
43670;SDS011;29267;50.906;7.248;2023-05-07T12:28:18;3.20;;;0.90;;
43670;SDS011;29267;50.906;7.248;2023-05-07T12:30:47;6.53;;;1.20;;
43670;SDS011;29267;50.906;7.248;2023-05-07T12:33:17;1.88;;;1.05;;
43670;SDS011;29267;50.906;7.248;2023-05-07T12:35:44;1.45;;;1.20;;
43670;SDS011;29267;50.906;7.248;2023-05-07T12:38:10;2.53;;;0.90;;
43670;SDS011;29267;50.906;7.248;2023-05-07T12:40:38;3.20;;;1.48;;
43670;SDS011;29267;50.906;7.248;2023-05-07T12:43:15;2.17;;;1.08;;
43670;SDS011;29267;50.906;7.248;2023-05-07T12:45:45;1.90;;;1.00;;
43670;SDS011;29267;50.906;7.248;2023-05-07T12:48:13;2.97;;;1.30;;
43670;SDS011;29267;50.906;7.248;2023-05-07T12:50:38;3.40;;;1.17;;
43670;SDS011;29267;50.906;7.248;2023-05-07T12:53:05;1.70;;;0.93;;
43670;SDS011;29267;50.906;7.248;2023-05-07T12:55:34;2.17;;;0.98;;
43670;SDS011;29267;50.906;7.248;2023-05-07T12:58:13;2.53;;;1.38;;
43670;SDS011;29267;50.906;7.248;2023-05-07T13:00:43;4.90;;;0.80;;
43670;SDS011;29267;50.906;7.248;2023-05-07T13:03:12;1.67;;;1.08;;
43670;SDS011;29267;50.906;7.248;2023-05-07T13:05:50;2.65;;;1.38;;
43670;SDS011;29267;50.906;7.248;2023-05-07T13:10:51;1.33;;;0.90;;
43670;SDS011;29267;50.906;7.248;2023-05-07T13:13:18;1.88;;;1.30;;
43670;SDS011;29267;50.906;7.248;2023-05-07T13:15:44;3.70;;;1.15;;
43670;SDS011;29267;50.906;7.248;2023-05-07T13:18:09;3.15;;;1.17;;
43670;SDS011;29267;50.906;7.248;2023-05-07T13:20:36;3.17;;;1.13;;
43670;SDS011;29267;50.906;7.248;2023-05-07T13:23:01;1.25;;;1.00;;
43670;SDS011;29267;50.906;7.248;2023-05-07T13:25:29;2.22;;;1.05;;
43670;SDS011;29267;50.906;7.248;2023-05-07T13:27:56;1.77;;;1.20;;
43670;SDS011;29267;50.906;7.248;2023-05-07T13:30:22;2.33;;;1.13;;
43670;SDS011;29267;50.906;7.248;2023-05-07T13:32:47;2.25;;;1.08;;
43670;SDS011;29267;50.906;7.248;2023-05-07T13:35:14;3.15;;;1.20;;
43670;SDS011;29267;50.906;7.248;2023-05-07T13:37:39;2.83;;;1.23;;
43670;SDS011;29267;50.906;7.248;2023-05-07T13:40:05;5.20;;;1.27;;
43670;SDS011;29267;50.906;7.248;2023-05-07T13:42:31;2.20;;;1.20;;
43670;SDS011;29267;50.906;7.248;2023-05-07T13:44:57;3.85;;;1.40;;
43670;SDS011;29267;50.906;7.248;2023-05-07T13:47:22;2.03;;;1.38;;
43670;SDS011;29267;50.906;7.248;2023-05-07T13:49:48;1.42;;;1.10;;
43670;SDS011;29267;50.906;7.248;2023-05-07T13:52:15;3.13;;;1.30;;
43670;SDS011;29267;50.906;7.248;2023-05-07T13:54:41;2.28;;;1.05;;
43670;SDS011;29267;50.906;7.248;2023-05-07T13:57:06;1.80;;;1.15;;
43670;SDS011;29267;50.906;7.248;2023-05-07T13:59:32;2.35;;;0.90;;
43670;SDS011;29267;50.906;7.248;2023-05-07T14:01:58;1.27;;;0.88;;
43670;SDS011;29267;50.906;7.248;2023-05-07T14:04:24;3.65;;;1.33;;
43670;SDS011;29267;50.906;7.248;2023-05-07T14:06:50;1.63;;;1.05;;
43670;SDS011;29267;50.906;7.248;2023-05-07T14:09:16;2.25;;;1.10;;
43670;SDS011;29267;50.906;7.248;2023-05-07T14:11:42;1.90;;;1.30;;
43670;SDS011;29267;50.906;7.248;2023-05-07T14:14:07;1.10;;;0.98;;
43670;SDS011;29267;50.906;7.248;2023-05-07T14:16:35;2.58;;;1.10;;
43670;SDS011;29267;50.906;7.248;2023-05-07T14:19:01;2.92;;;1.20;;
43670;SDS011;29267;50.906;7.248;2023-05-07T14:21:27;2.67;;;1.33;;
43670;SDS011;29267;50.906;7.248;2023-05-07T14:23:53;1.60;;;1.02;;
43670;SDS011;29267;50.906;7.248;2023-05-07T14:26:18;1.80;;;0.95;;
43670;SDS011;29267;50.906;7.248;2023-05-07T14:28:44;2.85;;;1.27;;
43670;SDS011;29267;50.906;7.248;2023-05-07T14:31:11;1.88;;;1.30;;
43670;SDS011;29267;50.906;7.248;2023-05-07T14:33:37;2.13;;;1.17;;
43670;SDS011;29267;50.906;7.248;2023-05-07T14:36:03;3.35;;;1.10;;
43670;SDS011;29267;50.906;7.248;2023-05-07T14:38:29;1.73;;;1.00;;
43670;SDS011;29267;50.906;7.248;2023-05-07T14:40:55;5.70;;;1.23;;
43670;SDS011;29267;50.906;7.248;2023-05-07T14:43:21;1.60;;;1.05;;
43670;SDS011;29267;50.906;7.248;2023-05-07T14:45:47;1.50;;;1.10;;
43670;SDS011;29267;50.906;7.248;2023-05-07T14:48:12;2.15;;;1.20;;
43670;SDS011;29267;50.906;7.248;2023-05-07T14:50:40;2.30;;;1.02;;
43670;SDS011;29267;50.906;7.248;2023-05-07T14:53:06;5.38;;;1.10;;
43670;SDS011;29267;50.906;7.248;2023-05-07T14:55:32;4.05;;;1.25;;
43670;SDS011;29267;50.906;7.248;2023-05-07T14:57:59;2.30;;;1.15;;
43670;SDS011;29267;50.906;7.248;2023-05-07T15:00:25;4.55;;;1.50;;
43670;SDS011;29267;50.906;7.248;2023-05-07T15:02:50;3.08;;;1.20;;
43670;SDS011;29267;50.906;7.248;2023-05-07T15:05:16;1.80;;;1.25;;
43670;SDS011;29267;50.906;7.248;2023-05-07T15:07:44;1.50;;;1.13;;